createdAt,value
2019-01-31T00:00:13.492Z,12.50
2019-01-31T00:03:04.002Z,11.95
2019-01-31T00:05:47.532Z,11.47
2019-01-31T00:08:46.428Z,13.18
2019-01-31T00:11:57.324Z,13.40
2019-01-31T00:14:47.915Z,11.37
2019-01-31T00:17:40.366Z,12.00
2019-01-31T00:20:44.612Z,12.73
2019-01-31T00:23:45.057Z,13.88
2019-01-31T00:26:25.111Z,15.83
2019-01-31T00:29:03.454Z,16.53
2019-01-31T00:31:51.095Z,16.23
2019-01-31T00:34:41.241Z,19.47
2019-01-31T00:37:25.305Z,16.33
2019-01-31T00:40:19.503Z,13.20
2019-01-31T00:43:17.071Z,17.07
2019-01-31T00:46:24.252Z,15.23
2019-01-31T00:49:28.108Z,16.03
2019-01-31T00:52:33.454Z,15.33
2019-01-31T00:55:19.095Z,16.20
2019-01-31T00:58:24.748Z,17.50
2019-01-31T01:01:42.204Z,17.27
2019-01-31T01:04:50.547Z,17.67
2019-01-31T01:08:00.417Z,19.50
2019-01-31T01:11:17.877Z,18.97
2019-01-31T01:14:16.134Z,19.80
2019-01-31T01:17:19.856Z,20.53
2019-01-31T01:20:15.344Z,19.90
2019-01-31T01:23:14.531Z,17.60
2019-01-31T01:26:17.306Z,17.97
2019-01-31T01:29:23.714Z,18.53
2019-01-31T01:32:18.002Z,17.37
2019-01-31T01:35:04.692Z,19.43
2019-01-31T01:38:17.128Z,20.97
2019-01-31T01:41:00.381Z,20.67
2019-01-31T01:44:05.598Z,21.10
2019-01-31T01:46:49.342Z,19.27
2019-01-31T01:49:31.011Z,19.10
2019-01-31T01:52:33.406Z,21.73
2019-01-31T01:55:45.346Z,19.42
2019-01-31T01:58:34.685Z,20.50
2019-01-31T02:01:40.737Z,21.33
2019-01-31T02:04:22.659Z,17.23
2019-01-31T02:07:24.567Z,18.57
2019-01-31T02:10:22.038Z,21.47
2019-01-31T02:13:28.980Z,17.77
2019-01-31T02:16:46.043Z,18.37
2019-01-31T02:19:54.566Z,19.30
2019-01-31T02:22:33.749Z,20.83
2019-01-31T02:25:15.308Z,17.52
2019-01-31T02:28:14.991Z,17.13
2019-01-31T02:31:14.987Z,20.10
2019-01-31T02:34:20.164Z,20.80
2019-01-31T02:37:14.359Z,21.40
2019-01-31T02:40:06.371Z,23.27
2019-01-31T02:42:47.400Z,22.20
2019-01-31T02:45:35.639Z,23.63
2019-01-31T02:48:24.959Z,20.77
2019-01-31T02:51:32.327Z,21.87
2019-01-31T02:54:16.813Z,19.30
2019-01-31T02:57:07.407Z,22.23
2019-01-31T03:00:19.203Z,22.40
2019-01-31T03:03:27.623Z,21.10
2019-01-31T03:06:17.333Z,19.23
2019-01-31T03:09:11.996Z,19.10
2019-01-31T03:12:16.005Z,19.48
2019-01-31T03:14:54.505Z,21.60
2019-01-31T03:17:50.041Z,22.73
2019-01-31T03:20:40.972Z,20.90
2019-01-31T03:23:58.688Z,20.75
2019-01-31T03:26:50.699Z,20.77
2019-01-31T03:29:59.468Z,20.43
2019-01-31T03:33:03.143Z,19.90
2019-01-31T03:36:11.645Z,19.33
2019-01-31T03:38:48.654Z,17.92
2019-01-31T03:41:44.966Z,18.07
2019-01-31T03:44:40.724Z,17.60
2019-01-31T03:47:21.089Z,17.80
2019-01-31T03:50:23.358Z,16.27
2019-01-31T03:53:27.100Z,20.07
2019-01-31T03:56:35.990Z,18.37
2019-01-31T03:59:21.954Z,18.23
2019-01-31T04:02:27.729Z,17.90
2019-01-31T04:05:59.976Z,18.37
2019-01-31T04:08:29.756Z,18.00
2019-01-31T04:11:01.466Z,17.67
2019-01-31T04:13:31.447Z,17.57
2019-01-31T04:16:01.435Z,19.27
2019-01-31T04:18:31.670Z,20.17
2019-01-31T04:21:03.212Z,20.70
2019-01-31T04:23:33.619Z,17.02
2019-01-31T04:26:07.620Z,16.70
2019-01-31T04:28:38.083Z,15.27
2019-01-31T04:31:07.875Z,13.87
2019-01-31T04:33:37.626Z,17.42
2019-01-31T04:36:07.976Z,15.87
2019-01-31T04:38:37.709Z,16.65
2019-01-31T04:41:07.484Z,15.43
2019-01-31T04:43:37.936Z,12.10
2019-01-31T04:46:07.721Z,13.10
2019-01-31T04:48:37.762Z,15.50
2019-01-31T04:51:08.225Z,12.47
2019-01-31T04:53:38.403Z,13.40
2019-01-31T04:56:08.800Z,11.70
2019-01-31T04:58:38.665Z,12.63
2019-01-31T05:01:08.598Z,11.57
2019-01-31T05:03:39.048Z,14.17
2019-01-31T05:06:09.191Z,13.47
2019-01-31T05:08:39.600Z,12.67
2019-01-31T05:11:10.296Z,13.80
2019-01-31T05:13:40.446Z,14.60
2019-01-31T05:16:10.784Z,12.45
2019-01-31T05:18:40.805Z,14.50
2019-01-31T05:21:11.415Z,12.10
2019-01-31T05:23:41.656Z,14.10
2019-01-31T05:26:11.790Z,13.73
2019-01-31T05:28:41.886Z,14.13
2019-01-31T05:31:12.917Z,14.20
2019-01-31T05:33:42.723Z,12.80
2019-01-31T05:36:12.804Z,13.33
2019-01-31T05:38:43.095Z,12.60
2019-01-31T05:41:13.531Z,11.90
2019-01-31T05:43:43.937Z,13.30
2019-01-31T05:46:14.049Z,10.80
2019-01-31T05:48:44.466Z,11.70
2019-01-31T05:51:14.892Z,12.03
2019-01-31T05:53:45.009Z,11.68
2019-01-31T05:56:14.522Z,11.70
2019-01-31T05:58:44.954Z,10.95
2019-01-31T06:01:15.780Z,10.10
2019-01-31T06:03:45.864Z,12.37
2019-01-31T06:06:16.473Z,12.07
2019-01-31T06:08:46.339Z,16.95
2019-01-31T06:11:16.767Z,14.07
2019-01-31T06:13:47.187Z,13.80
2019-01-31T06:16:17.002Z,11.40
2019-01-31T06:18:46.828Z,12.23
2019-01-31T06:21:16.650Z,11.67
2019-01-31T06:23:46.644Z,12.60
2019-01-31T06:26:17.370Z,15.57
2019-01-31T06:28:47.711Z,17.47
2019-01-31T06:31:17.952Z,13.00
2019-01-31T06:33:47.777Z,13.67
2019-01-31T06:36:18.381Z,14.57
2019-01-31T06:38:48.781Z,16.27
2019-01-31T06:41:19.037Z,12.97
2019-01-31T06:43:49.307Z,14.07
2019-01-31T06:46:19.265Z,15.50
2019-01-31T06:48:49.008Z,15.80
2019-01-31T06:51:19.787Z,17.90
2019-01-31T06:53:49.679Z,20.23
2019-01-31T06:56:19.409Z,14.87
2019-01-31T06:58:49.678Z,16.33
2019-01-31T07:01:20.161Z,17.93
2019-01-31T07:03:50.359Z,17.23
2019-01-31T07:06:20.355Z,16.70
2019-01-31T07:08:50.865Z,18.77
2019-01-31T07:11:29.655Z,19.87
2019-01-31T07:13:54.773Z,15.97
2019-01-31T07:16:25.432Z,20.00
2019-01-31T07:18:55.692Z,18.50
2019-01-31T07:21:25.962Z,21.13
2019-01-31T07:23:56.216Z,20.13
2019-01-31T07:26:26.709Z,19.47
2019-01-31T07:28:57.155Z,20.77
2019-01-31T07:31:28.677Z,19.23
2019-01-31T07:33:58.462Z,19.57
2019-01-31T07:36:28.501Z,31.87
2019-01-31T07:38:58.833Z,18.63
2019-01-31T07:41:29.062Z,20.27
2019-01-31T07:43:59.389Z,18.50
2019-01-31T07:46:29.393Z,21.13
2019-01-31T07:48:59.693Z,19.17
2019-01-31T07:51:30.349Z,18.45
2019-01-31T07:54:00.940Z,17.80
2019-01-31T07:56:31.998Z,18.13
2019-01-31T07:59:01.995Z,18.40
2019-01-31T08:01:32.591Z,18.70
2019-01-31T08:04:03.640Z,16.87
2019-01-31T08:06:33.926Z,18.03
2019-01-31T08:09:05.150Z,18.17
2019-01-31T08:11:36.832Z,17.33
2019-01-31T08:14:07.767Z,14.70
2019-01-31T08:16:38.287Z,18.98
2019-01-31T08:19:09.493Z,17.85
2019-01-31T08:21:41.116Z,14.80
2019-01-31T08:24:11.366Z,15.47
2019-01-31T08:26:41.674Z,18.00
2019-01-31T08:29:11.855Z,13.73
2019-01-31T08:31:42.471Z,13.63
2019-01-31T08:34:13.255Z,14.50
2019-01-31T08:36:43.264Z,16.73
2019-01-31T08:39:14.049Z,16.25
2019-01-31T08:41:45.026Z,16.57
2019-01-31T08:44:21.006Z,16.02
2019-01-31T08:46:51.420Z,16.73
2019-01-31T08:49:23.212Z,13.87
2019-01-31T08:51:55.621Z,15.20
2019-01-31T08:54:26.703Z,12.20
2019-01-31T08:56:56.871Z,13.97
2019-01-31T08:59:27.458Z,12.27
2019-01-31T09:01:59.021Z,14.73
2019-01-31T09:04:28.899Z,14.40
2019-01-31T09:06:59.399Z,15.83
2019-01-31T09:09:35.793Z,13.23
2019-01-31T09:12:14.961Z,11.57
2019-01-31T09:14:38.343Z,13.60
2019-01-31T09:17:09.190Z,14.93
2019-01-31T09:19:39.805Z,14.23
2019-01-31T09:22:35.080Z,10.20
2019-01-31T09:25:34.451Z,12.25
2019-01-31T09:28:24.019Z,12.23
2019-01-31T09:31:27.707Z,13.67
2019-01-31T09:34:26.989Z,10.25
2019-01-31T09:37:25.853Z,9.60
2019-01-31T09:40:17.191Z,11.60
2019-01-31T09:43:29.223Z,12.87
2019-01-31T09:46:27.878Z,10.10
2019-01-31T09:49:27.724Z,12.35
2019-01-31T09:52:35.549Z,11.12
2019-01-31T09:55:56.343Z,10.10
2019-01-31T09:58:37.217Z,11.30
2019-01-31T10:01:39.684Z,12.57
2019-01-31T10:05:01.001Z,11.47
2019-01-31T10:08:04.619Z,10.50
2019-01-31T10:11:09.635Z,10.53
2019-01-31T10:14:16.577Z,10.32
2019-01-31T10:17:27.243Z,10.53
2019-01-31T10:20:28.233Z,9.10
2019-01-31T10:23:25.663Z,10.47
2019-01-31T10:26:20.973Z,8.60
2019-01-31T10:29:11.932Z,10.70
2019-01-31T10:32:15.419Z,7.80
2019-01-31T10:35:29.254Z,7.40
2019-01-31T10:38:37.581Z,8.78
2019-01-31T10:41:37.071Z,6.90
2019-01-31T10:44:45.489Z,6.17
2019-01-31T10:47:34.803Z,4.45
2019-01-31T10:50:37.585Z,5.78
2019-01-31T10:53:58.309Z,5.60
2019-01-31T10:57:01.443Z,6.00
2019-01-31T11:00:21.393Z,4.83
2019-01-31T11:03:27.699Z,5.90
2019-01-31T11:06:24.552Z,7.50
2019-01-31T11:09:27.226Z,5.83
2019-01-31T11:13:00.806Z,7.43
2019-01-31T11:15:53.585Z,3.33
2019-01-31T11:18:46.028Z,4.10
2019-01-31T11:21:39.397Z,5.67
2019-01-31T11:24:27.413Z,3.43
2019-01-31T11:27:24.176Z,4.47
2019-01-31T11:30:32.391Z,7.35
2019-01-31T11:33:27.703Z,5.27
2019-01-31T11:36:49.246Z,7.20
2019-01-31T11:40:16.031Z,4.40
2019-01-31T11:43:11.876Z,8.83
2019-01-31T11:46:15.307Z,6.03
2019-01-31T11:48:52.950Z,6.03
2019-01-31T11:52:13.379Z,5.63
2019-01-31T11:55:17.426Z,7.07
2019-01-31T11:58:12.534Z,3.60
2019-01-31T12:00:42.834Z,6.20
2019-01-31T12:03:13.650Z,6.17
2019-01-31T12:05:45.210Z,7.45
2019-01-31T12:08:16.254Z,5.33
2019-01-31T12:10:46.659Z,3.97
2019-01-31T12:13:23.562Z,4.03
2019-01-31T12:15:50.944Z,3.20
2019-01-31T12:18:21.961Z,7.70
2019-01-31T12:20:52.279Z,3.70
2019-01-31T12:23:23.587Z,4.80
2019-01-31T12:26:02.755Z,4.50
2019-01-31T12:28:37.731Z,4.63
2019-01-31T12:31:10.342Z,7.67
2019-01-31T12:33:42.126Z,5.43
2019-01-31T12:36:12.117Z,6.77
2019-01-31T12:38:42.149Z,7.50
2019-01-31T12:41:12.437Z,6.10
2019-01-31T12:43:43.475Z,5.00
2019-01-31T12:46:14.206Z,4.40
2019-01-31T12:48:43.868Z,3.37
2019-01-31T12:51:14.863Z,3.40
2019-01-31T12:53:45.054Z,4.12
2019-01-31T12:56:14.847Z,5.90
2019-01-31T12:58:44.344Z,4.35
2019-01-31T13:01:14.378Z,5.85
2019-01-31T13:03:44.265Z,4.20
2019-01-31T13:06:14.171Z,4.43
2019-01-31T13:08:44.814Z,5.03
2019-01-31T13:11:15.167Z,12.18
2019-01-31T13:13:46.235Z,7.17
2019-01-31T13:16:16.390Z,3.62
2019-01-31T13:18:45.959Z,4.97
2019-01-31T13:21:15.556Z,3.45
2019-01-31T13:23:45.505Z,4.30
2019-01-31T13:26:17.216Z,3.40
2019-01-31T13:28:46.715Z,4.30
2019-01-31T13:31:16.477Z,4.10
2019-01-31T13:33:46.856Z,3.33
2019-01-31T13:36:17.316Z,4.70
2019-01-31T13:38:47.967Z,9.27
2019-01-31T13:41:20.604Z,5.13
2019-01-31T13:43:57.596Z,7.37
2019-01-31T13:46:24.015Z,3.80
2019-01-31T13:48:54.656Z,2.40
2019-01-31T13:51:24.230Z,3.33
2019-01-31T13:53:53.970Z,3.17
2019-01-31T13:56:24.001Z,2.90
2019-01-31T13:58:53.514Z,1.83
2019-01-31T14:01:23.208Z,2.23
2019-01-31T14:03:53.580Z,3.00
2019-01-31T14:06:23.990Z,3.93
2019-01-31T14:08:55.040Z,5.60
2019-01-31T14:11:25.495Z,5.17
2019-01-31T14:13:55.945Z,2.60
2019-01-31T14:16:25.720Z,3.07
2019-01-31T14:18:55.675Z,5.03
2019-01-31T14:21:30.293Z,3.10
2019-01-31T14:24:00.367Z,4.20
2019-01-31T14:26:33.760Z,2.77
2019-01-31T14:29:03.557Z,5.13
2019-01-31T14:31:33.802Z,4.78
2019-01-31T14:34:04.689Z,2.60
2019-01-31T14:36:34.201Z,2.50
2019-01-31T14:39:06.844Z,3.57
2019-01-31T14:41:37.315Z,1.17
2019-01-31T14:44:06.848Z,3.63
2019-01-31T14:46:37.068Z,5.13
2019-01-31T14:49:06.749Z,7.62
2019-01-31T14:51:37.310Z,2.55
2019-01-31T14:54:06.942Z,8.60
2019-01-31T14:56:37.024Z,4.42
2019-01-31T14:59:06.916Z,1.65
2019-01-31T15:01:37.636Z,6.28
2019-01-31T15:04:09.635Z,3.17
2019-01-31T15:06:40.999Z,3.45
2019-01-31T15:09:10.528Z,4.70
2019-01-31T15:11:40.314Z,4.43
2019-01-31T15:14:10.128Z,2.72
2019-01-31T15:16:39.862Z,6.40
2019-01-31T15:19:10.445Z,3.63
2019-01-31T15:21:40.292Z,3.33
2019-01-31T15:24:12.269Z,3.90
2019-01-31T15:26:41.889Z,2.87
2019-01-31T15:29:13.302Z,4.42
2019-01-31T15:31:43.926Z,5.33
2019-01-31T15:34:14.499Z,2.50
2019-01-31T15:36:45.102Z,5.87
2019-01-31T15:39:15.223Z,4.62
2019-01-31T15:41:45.188Z,2.43
2019-01-31T15:44:15.839Z,4.63
2019-01-31T15:46:45.336Z,4.20
2019-01-31T15:49:14.920Z,3.70
2019-01-31T15:51:44.899Z,5.13
2019-01-31T15:54:16.561Z,4.90
2019-01-31T15:56:48.475Z,3.43
2019-01-31T15:59:19.400Z,2.23
2019-01-31T16:01:49.526Z,1.03
2019-01-31T16:04:19.934Z,2.40
2019-01-31T16:06:49.955Z,2.40
2019-01-31T16:09:24.088Z,6.53
2019-01-31T16:11:53.634Z,2.00
2019-01-31T16:14:24.001Z,5.63
2019-01-31T16:16:55.024Z,4.87
2019-01-31T16:19:24.750Z,6.97
2019-01-31T16:21:54.294Z,7.13
2019-01-31T16:24:26.178Z,6.50
2019-01-31T16:26:55.739Z,7.23
2019-01-31T16:29:25.319Z,2.27
2019-01-31T16:31:54.859Z,3.30
2019-01-31T16:34:24.432Z,3.83
2019-01-31T16:36:54.318Z,4.60
2019-01-31T16:39:24.238Z,1.40
2019-01-31T16:41:53.791Z,4.33
2019-01-31T16:44:23.285Z,4.40
2019-01-31T16:46:53.084Z,11.20
2019-01-31T16:49:22.585Z,3.50
2019-01-31T16:51:52.124Z,5.27
2019-01-31T16:54:21.946Z,2.15
2019-01-31T16:56:51.550Z,4.23
2019-01-31T16:59:21.190Z,8.47
2019-01-31T17:01:50.801Z,2.53
2019-01-31T17:04:20.349Z,4.53
2019-01-31T17:06:49.961Z,1.90
2019-01-31T17:09:19.498Z,4.13
2019-01-31T17:11:49.291Z,5.63
2019-01-31T17:14:19.758Z,5.70
2019-01-31T17:16:49.285Z,4.73
2019-01-31T17:19:18.821Z,3.50
2019-01-31T17:21:48.543Z,3.27
2019-01-31T17:24:18.383Z,2.03
2019-01-31T17:26:48.033Z,3.70
2019-01-31T17:29:17.758Z,5.90
2019-01-31T17:31:47.357Z,4.07
2019-01-31T17:34:16.848Z,4.00
2019-01-31T17:36:46.640Z,7.80
2019-01-31T17:39:16.187Z,9.90
2019-01-31T17:41:45.782Z,10.60
2019-01-31T17:44:15.698Z,5.47
2019-01-31T17:46:45.501Z,3.30
2019-01-31T17:49:15.032Z,2.47
2019-01-31T17:51:44.620Z,3.10
2019-01-31T17:54:14.190Z,2.37
2019-01-31T17:56:43.666Z,5.47
2019-01-31T17:59:13.337Z,2.33
2019-01-31T18:01:43.258Z,3.13
2019-01-31T18:04:12.783Z,1.87
2019-01-31T18:06:42.370Z,1.70
2019-01-31T18:09:12.699Z,7.10
2019-01-31T18:11:42.202Z,6.87
2019-01-31T18:14:12.292Z,6.07
2019-01-31T18:16:42.079Z,7.85
2019-01-31T18:19:11.591Z,2.83
2019-01-31T18:21:41.068Z,2.25
2019-01-31T18:24:10.542Z,5.33
2019-01-31T18:26:40.087Z,4.30
2019-01-31T18:29:09.586Z,7.23
2019-01-31T18:31:39.270Z,4.20
2019-01-31T18:34:08.751Z,2.70
2019-01-31T18:36:38.225Z,8.33
2019-01-31T18:39:09.815Z,3.17
2019-01-31T18:41:39.515Z,5.72
2019-01-31T18:44:11.067Z,5.78
2019-01-31T18:46:40.887Z,4.50
2019-01-31T18:49:10.508Z,4.45
2019-01-31T18:51:40.746Z,4.70
2019-01-31T18:54:12.588Z,6.90
2019-01-31T18:56:42.331Z,4.97
2019-01-31T18:59:12.000Z,3.67
2019-01-31T19:01:41.926Z,5.62
2019-01-31T19:04:12.237Z,7.80
2019-01-31T19:06:42.242Z,2.00
2019-01-31T19:09:12.231Z,3.50
2019-01-31T19:11:41.916Z,6.85
2019-01-31T19:14:14.348Z,4.03
2019-01-31T19:16:43.856Z,4.83
2019-01-31T19:19:13.781Z,5.87
2019-01-31T19:21:43.325Z,5.07
2019-01-31T19:24:12.830Z,2.40
2019-01-31T19:26:42.378Z,2.55
2019-01-31T19:29:11.960Z,3.30
2019-01-31T19:31:41.542Z,6.87
2019-01-31T19:34:11.261Z,4.90
2019-01-31T19:36:40.833Z,6.63
2019-01-31T19:39:16.346Z,6.37
2019-01-31T19:41:46.160Z,5.92
2019-01-31T19:44:15.694Z,3.25
2019-01-31T19:46:45.774Z,4.30
2019-01-31T19:49:15.427Z,7.30
2019-01-31T19:51:45.456Z,3.57
2019-01-31T19:54:15.745Z,3.80
2019-01-31T19:56:47.041Z,3.23
2019-01-31T19:59:16.810Z,6.45
2019-01-31T20:01:46.440Z,5.13
2019-01-31T20:04:16.231Z,2.77
2019-01-31T20:06:46.378Z,2.97
2019-01-31T20:09:20.278Z,3.60
2019-01-31T20:11:49.822Z,10.73
2019-01-31T20:14:19.783Z,5.77
2019-01-31T20:16:49.452Z,7.50
2019-01-31T20:19:19.260Z,11.47
2019-01-31T20:21:48.834Z,7.27
2019-01-31T20:24:18.716Z,3.10
2019-01-31T20:26:48.636Z,8.48
2019-01-31T20:29:18.588Z,5.50
2019-01-31T20:31:48.261Z,8.23
2019-01-31T20:34:18.291Z,5.30
2019-01-31T20:36:47.907Z,4.57
2019-01-31T20:39:18.376Z,8.25
2019-01-31T20:41:54.238Z,9.70
2019-01-31T20:44:20.553Z,5.17
2019-01-31T20:46:50.206Z,7.43
2019-01-31T20:49:20.030Z,8.40
2019-01-31T20:51:49.946Z,5.78
2019-01-31T20:54:19.627Z,4.17
2019-01-31T20:56:51.256Z,4.73
2019-01-31T20:59:21.537Z,9.77
2019-01-31T21:01:51.162Z,7.63
2019-01-31T21:04:20.890Z,7.63
2019-01-31T21:06:50.455Z,3.57
2019-01-31T21:09:20.357Z,5.10
2019-01-31T21:11:50.090Z,7.20
2019-01-31T21:14:19.794Z,8.70
2019-01-31T21:16:51.967Z,6.30
2019-01-31T21:19:20.724Z,6.33
2019-01-31T21:21:50.237Z,7.08
2019-01-31T21:24:21.174Z,10.37
2019-01-31T21:26:50.784Z,5.90
2019-01-31T21:29:20.319Z,3.97
2019-01-31T21:31:49.889Z,4.37
2019-01-31T21:34:19.566Z,7.60
2019-01-31T21:36:49.232Z,4.05
2019-01-31T21:39:19.010Z,4.72
2019-01-31T21:41:48.598Z,9.60
2019-01-31T21:44:18.635Z,10.53
2019-01-31T21:46:48.187Z,6.73
2019-01-31T21:49:18.539Z,8.63
2019-01-31T21:51:48.612Z,3.37
2019-01-31T21:54:18.197Z,5.90
2019-01-31T21:56:48.027Z,9.27
2019-01-31T21:59:18.582Z,5.12
2019-01-31T22:01:48.140Z,8.78
2019-01-31T22:04:18.070Z,8.77
2019-01-31T22:06:48.335Z,13.97
2019-01-31T22:09:17.863Z,7.50
2019-01-31T22:11:47.726Z,5.90
2019-01-31T22:14:17.346Z,5.50
2019-01-31T22:16:46.916Z,8.48
2019-01-31T22:19:16.605Z,5.37
2019-01-31T22:21:46.770Z,11.13
2019-01-31T22:24:16.579Z,8.10
2019-01-31T22:26:46.203Z,12.00
2019-01-31T22:29:15.807Z,5.90
2019-01-31T22:31:45.883Z,5.40
2019-01-31T22:34:16.046Z,6.70
2019-01-31T22:36:45.753Z,6.17
2019-01-31T22:39:16.192Z,9.73
2019-01-31T22:41:45.719Z,8.60
2019-01-31T22:44:15.678Z,6.35
2019-01-31T22:46:46.128Z,12.40
2019-01-31T22:49:16.705Z,9.38
2019-01-31T22:51:46.783Z,9.93
2019-01-31T22:54:17.166Z,15.03
2019-01-31T22:56:46.744Z,7.90
2019-01-31T22:59:16.656Z,12.88
2019-01-31T23:01:59.247Z,7.40
2019-01-31T23:04:29.097Z,8.20
2019-01-31T23:06:59.830Z,11.60
2019-01-31T23:09:29.395Z,12.73
2019-01-31T23:11:58.993Z,12.47
2019-01-31T23:14:28.793Z,11.27
2019-01-31T23:16:58.565Z,16.10
2019-01-31T23:19:30.527Z,11.43
2019-01-31T23:22:00.020Z,12.83
2019-01-31T23:24:30.779Z,12.07
2019-01-31T23:27:00.270Z,12.07
2019-01-31T23:29:30.111Z,13.07
2019-01-31T23:31:59.977Z,7.80
2019-01-31T23:34:29.916Z,9.60
2019-01-31T23:36:59.398Z,9.97
2019-01-31T23:39:29.263Z,8.20
2019-01-31T23:41:58.792Z,7.33
2019-01-31T23:44:29.009Z,10.77
2019-01-31T23:46:58.772Z,9.80
2019-01-31T23:49:28.819Z,10.17
2019-01-31T23:51:58.311Z,14.77
2019-01-31T23:54:28.589Z,12.40
2019-01-31T23:56:58.326Z,10.07
2019-01-31T23:59:27.833Z,13.70
